• Join FlightAware (Why Join?)
  • Login
  • US Flag 
08:15AM EDT


 

Airport Tracker/Info


-or-


 

Live Flight TrackerFlight Track Log ✈ N400PU ✈ 24-Nov-2013 ✈ KLAF - KMCI

Flight Track Log - Related Links

Times and Time Zones

All times are in EST time to prevent confusion due to time zone crossing. See the N400PU flight status page for this flight to view local times or setup timezone preferences in your user account.

Time Position Orientation Groundspeed Altitude Reporting Facility
EST Latitude Longitude Course Direction KTS MPH feet Rate Location/Type
04:06PM 40.4108 -87.0425 239° Southwest 214 246 5,000  Level Chicago Center
04:07PM 40.4033 -87.0586 239° Southwest 229 264 5,900 2,760 Climbing Chicago Center
04:08PM 40.3811 -87.1381 250° West 237 273 9,000 1,980 Climbing Chicago Center
04:09PM 40.3631 -87.2339 256° West 226 260 10,000 960 Climbing Chicago Center
04:10PM 40.3428 -87.3356 255° West 287 330 11,000 1,740 Climbing Chicago Center
04:11PM 40.3214 -87.4367 255° West 290 334 13,700 2,520 Climbing Chicago Center
04:12PM 40.3003 -87.5403 255° West 279 321 16,300 1,920 Climbing Chicago Center
04:13PM 40.2786 -87.6453 255° West 294 338 17,700 1,620 Climbing Chicago Center
04:14PM 40.2567 -87.7531 255° West 305 351 19,700 1,860 Climbing Chicago Center
04:15PM 40.2342 -87.8617 255° West 309 356 21,600 2,040 Climbing Chicago Center
04:16PM 40.2069 -87.9931 255° West 311 358 24,000 1,980 Climbing Chicago Center
04:17PM 40.1933 -88.1050 261° West 312 359 25,800 1,440 Climbing Chicago Center
04:18PM 40.1875 -88.2164 266° West 312 359 27,000 1,140 Climbing Chicago Center
04:19PM 40.1769 -88.3394 264° West 331 381 28,200 1,140 Climbing Chicago Center
04:20PM 40.1669 -88.4636 264° West 341 392 29,400 1,260 Climbing Chicago Center
04:21PM 40.1564 -88.5858 264° West 339 390 30,900 1,380 Climbing Chicago Center
04:22PM 40.1486 -88.7019 265° West 328 377 32,300 1,500 Climbing Chicago Center
04:23PM 40.1386 -88.8369 265° West 315 362 34,000 1,500 Climbing Chicago Center
04:24PM 40.1300 -88.9450 264° West 304 350 35,500 1,320 Climbing Chicago Center
04:25PM 40.1239 -89.0456 265° West 282 325 36,800 960 Climbing Chicago Center
04:27PM 40.1147 -89.1406 263° West 265 305 37,500 540 Climbing Chicago Center
04:27PM 40.1092 -89.2006 263° West 269 310 37,800 240 Climbing Kansas City Center
04:28PM 40.1017 -89.3008 264° West 273 314 38,000 60 Climbing Kansas City Center
04:29PM 40.0914 -89.4289 264° West 289 333 38,000  Level Kansas City Center
04:30PM 40.0806 -89.5406 263° West 302 348 38,000  Level Kansas City Center
04:31PM 40.0708 -89.6594 264° West 319 367 38,000  Level Kansas City Center
04:32PM 40.0608 -89.7817 264° West 331 381 38,000  Level Kansas City Center
04:33PM 40.0503 -89.9050 264° West 338 389 38,000  Level Kansas City Center
04:34PM 40.0386 -90.0303 263° West 343 395 38,000  Level Kansas City Center
04:35PM 40.0269 -90.1578 263° West 349 402 38,000  Level Kansas City Center
04:36PM 40.0161 -90.2869 264° West 354 407 38,000  Level Kansas City Center
04:37PM 40.0028 -90.4408 264° West 355 409 38,000  Level Kansas City Center
04:39PM 39.9908 -90.5669 263° West 352 405 38,000  Level Kansas City Center
04:40PM 39.9789 -90.6919 263° West 350 403 38,000  Level Kansas City Center
04:41PM 39.9669 -90.8178 263° West 350 403 38,000  Level Kansas City Center
04:42PM 39.9542 -90.9422 262° West 347 399 38,000  Level Kansas City Center
04:43PM 39.9422 -91.0719 263° West 349 402 38,000  Level Kansas City Center
04:44PM 39.9286 -91.2003 262° West 355 409 38,000  Level Kansas City Center
04:45PM 39.9147 -91.3544 263° West 359 413 38,000  Level Kansas City Center
04:46PM 39.9006 -91.4808 262° West 356 410 38,000  Level Kansas City Center
04:47PM 39.8881 -91.6083 263° West 356 410 38,000  Level Kansas City Center
04:48PM 39.8744 -91.7308 262° West 349 402 38,000  Level Kansas City Center
04:49PM 39.8611 -91.8553 262° West 346 398 38,000 -360 Level Kansas City Center
04:50PM 39.8481 -91.9792 262° West 347 399 37,300 -1,080 Descending Kansas City Center
04:51PM 39.8361 -92.1017 263° West 344 396 35,800 -1,620 Descending Kansas City Center
04:52PM 39.8197 -92.2525 262° West 350 403 34,000 -900 Descending Kansas City Center
04:53PM 39.8053 -92.3797 262° West 353 406 34,000 -300 Level Kansas City Center
04:54PM 39.7914 -92.5064 262° West 354 407 33,400 -1,260 Descending Kansas City Center
04:55PM 39.7769 -92.6344 262° West 355 409 31,400 -2,100 Descending Kansas City Center
04:56PM 39.7619 -92.7669 262° West 364 419 29,100 -2,460 Descending Kansas City Center
04:57PM 39.7453 -92.9072 261° West 380 437 26,400 -2,580 Descending Kansas City Center
04:58PM 39.7256 -93.0814 262° West 401 461 23,800 -2,340 Descending Kansas City Center
04:59PM 39.7089 -93.2256 261° West 404 465 21,600 -2,280 Descending Kansas City Center
05:00PM 39.6942 -93.3653 262° West 397 457 19,200 -1,980 Descending Kansas City Center
05:01PM 39.6769 -93.4978 260° West 387 445 17,600 -1,740 Descending Kansas City Center
05:02PM 39.6606 -93.6231 260° West 361 415 15,700 -1,860 Descending Kansas City Center
05:03PM 39.6447 -93.7561 261° West 360 414 13,800 -1,800 Descending Kansas City Center
05:04PM 39.6231 -93.8953 259° West 354 407 12,000 -1,260 Descending Kansas City Center
05:05PM 39.5706 -93.9939 235° Southwest 348 400 11,200 -1,020 Descending Kansas City Center
05:06PM 39.5219 -94.1094 241° Southwest 319 367 10,000 -600 Descending Kansas City Center
05:07PM 39.5108 -94.2156 262° West 311 358 10,000 -540 Level Kansas City Center
05:08PM 39.5000 -94.3233 263° West 265 305 8,900 -1,560 Descending Kansas City Center
05:09PM 39.4800 -94.4092 253° West 260 299 6,800 -2,100 Descending Kansas City Center
05:10PM 39.4578 -94.5075 254° West 255 293 4,600 -1,380 Descending Kansas City Center
05:12PM 39.4417 -94.5822 254° West 231 266 4,000 -900 Descending Kansas City Center
05:13PM 39.4300 -94.6433 256° West 188 216 2,800 -720 Descending Kansas City Center
05:14PM 39.4017 -94.6986 236° Southwest 173 199 2,600 -480 Descending Kansas City Center
05:15PM 39.3664 -94.7081 192° South 136 157 1,900 -720 Descending Kansas City Center
05:16PM 39.3328 -94.7183 193° South 113 130 1,200 -480 Descending Kansas City Center
05:17PM 39.3108 -94.7242 192° South 92 106 1,000 -240 Descending Kansas City Center